sensor_id;sensor_type;location;lat;lon;timestamp;temperature;humidity
21316;DHT22;10817;55.820;13.030;2024-03-07T00:00:42;-2.20;99.90
21316;DHT22;10817;55.820;13.030;2024-03-07T00:03:09;-2.30;99.90
21316;DHT22;10817;55.820;13.030;2024-03-07T00:05:36;-2.20;99.90
21316;DHT22;10817;55.820;13.030;2024-03-07T00:08:05;-1.70;99.90
21316;DHT22;10817;55.820;13.030;2024-03-07T00:10:32;-2.30;99.90
21316;DHT22;10817;55.820;13.030;2024-03-07T00:13:01;-2.20;99.90
21316;DHT22;10817;55.820;13.030;2024-03-07T00:15:29;-2.30;99.90
21316;DHT22;10817;55.820;13.030;2024-03-07T00:17:56;-2.30;99.90
21316;DHT22;10817;55.820;13.030;2024-03-07T00:20:22;-2.20;99.90
21316;DHT22;10817;55.820;13.030;2024-03-07T00:22:49;-2.10;99.90
21316;DHT22;10817;55.820;13.030;2024-03-07T00:25:17;-2.20;99.90
21316;DHT22;10817;55.820;13.030;2024-03-07T00:27:46;-2.10;99.90
21316;DHT22;10817;55.820;13.030;2024-03-07T00:30:13;-2.10;99.90
21316;DHT22;10817;55.820;13.030;2024-03-07T00:32:43;-2.10;99.90
21316;DHT22;10817;55.820;13.030;2024-03-07T00:35:10;-2.20;99.90
21316;DHT22;10817;55.820;13.030;2024-03-07T00:37:37;-2.20;99.90
21316;DHT22;10817;55.820;13.030;2024-03-07T00:40:05;-2.10;99.90
21316;DHT22;10817;55.820;13.030;2024-03-07T00:42:34;-2.10;99.90
21316;DHT22;10817;55.820;13.030;2024-03-07T00:45:01;-2.10;99.90
21316;DHT22;10817;55.820;13.030;2024-03-07T00:47:29;-2.10;99.90
21316;DHT22;10817;55.820;13.030;2024-03-07T00:49:57;-2.00;99.90
21316;DHT22;10817;55.820;13.030;2024-03-07T00:52:24;-1.90;99.90
21316;DHT22;10817;55.820;13.030;2024-03-07T00:54:51;-1.90;99.90
21316;DHT22;10817;55.820;13.030;2024-03-07T00:57:18;-1.90;99.90
21316;DHT22;10817;55.820;13.030;2024-03-07T00:59:46;-2.00;99.90
21316;DHT22;10817;55.820;13.030;2024-03-07T01:02:13;-2.00;99.90
21316;DHT22;10817;55.820;13.030;2024-03-07T01:04:42;-2.00;99.90
21316;DHT22;10817;55.820;13.030;2024-03-07T01:07:17;-2.00;99.90
21316;DHT22;10817;55.820;13.030;2024-03-07T01:09:48;-2.10;99.90
21316;DHT22;10817;55.820;13.030;2024-03-07T01:12:16;-1.10;99.90
21316;DHT22;10817;55.820;13.030;2024-03-07T01:14:55;-2.20;99.90
21316;DHT22;10817;55.820;13.030;2024-03-07T01:17:23;-2.20;99.90
21316;DHT22;10817;55.820;13.030;2024-03-07T01:19:50;-2.10;99.90
21316;DHT22;10817;55.820;13.030;2024-03-07T01:22:17;-2.10;99.90
21316;DHT22;10817;55.820;13.030;2024-03-07T01:24:44;-2.20;99.90
21316;DHT22;10817;55.820;13.030;2024-03-07T01:27:11;-2.10;99.90
21316;DHT22;10817;55.820;13.030;2024-03-07T01:29:38;-2.00;99.90
21316;DHT22;10817;55.820;13.030;2024-03-07T01:32:08;-1.90;99.90
21316;DHT22;10817;55.820;13.030;2024-03-07T01:34:35;-1.90;99.90
21316;DHT22;10817;55.820;13.030;2024-03-07T01:37:02;-1.90;99.90
21316;DHT22;10817;55.820;13.030;2024-03-07T01:39:29;-1.80;99.90
21316;DHT22;10817;55.820;13.030;2024-03-07T01:41:56;-1.80;99.90
21316;DHT22;10817;55.820;13.030;2024-03-07T01:44:22;-1.70;99.90
21316;DHT22;10817;55.820;13.030;2024-03-07T01:46:49;-1.60;99.90
21316;DHT22;10817;55.820;13.030;2024-03-07T01:49:18;-1.60;99.90
21316;DHT22;10817;55.820;13.030;2024-03-07T01:51:45;-1.60;99.90
21316;DHT22;10817;55.820;13.030;2024-03-07T01:54:13;-1.60;99.90
21316;DHT22;10817;55.820;13.030;2024-03-07T01:56:40;-1.40;99.90
21316;DHT22;10817;55.820;13.030;2024-03-07T01:59:08;-1.40;99.90
21316;DHT22;10817;55.820;13.030;2024-03-07T02:01:36;-1.30;99.90
21316;DHT22;10817;55.820;13.030;2024-03-07T02:04:04;-0.70;99.90
21316;DHT22;10817;55.820;13.030;2024-03-07T02:06:33;-1.20;99.90
21316;DHT22;10817;55.820;13.030;2024-03-07T02:09:00;-1.30;99.90
21316;DHT22;10817;55.820;13.030;2024-03-07T02:11:28;-1.30;99.90
21316;DHT22;10817;55.820;13.030;2024-03-07T02:13:55;-1.30;99.90
21316;DHT22;10817;55.820;13.030;2024-03-07T02:16:22;-1.30;99.90
21316;DHT22;10817;55.820;13.030;2024-03-07T02:18:50;-1.30;99.90
21316;DHT22;10817;55.820;13.030;2024-03-07T02:21:18;-1.30;99.90
21316;DHT22;10817;55.820;13.030;2024-03-07T02:23:45;-1.30;99.90
21316;DHT22;10817;55.820;13.030;2024-03-07T02:26:12;-1.30;99.90
21316;DHT22;10817;55.820;13.030;2024-03-07T02:28:39;-1.30;99.90
21316;DHT22;10817;55.820;13.030;2024-03-07T02:31:07;-1.10;99.90
21316;DHT22;10817;55.820;13.030;2024-03-07T02:33:34;-1.10;99.90
21316;DHT22;10817;55.820;13.030;2024-03-07T02:36:01;-0.30;99.90
21316;DHT22;10817;55.820;13.030;2024-03-07T02:38:30;-0.20;99.90
21316;DHT22;10817;55.820;13.030;2024-03-07T02:40:57;-1.10;99.90
21316;DHT22;10817;55.820;13.030;2024-03-07T02:43:24;-1.00;99.90
21316;DHT22;10817;55.820;13.030;2024-03-07T02:45:51;-1.00;99.90
21316;DHT22;10817;55.820;13.030;2024-03-07T02:48:18;-0.90;99.90
21316;DHT22;10817;55.820;13.030;2024-03-07T02:50:44;-0.90;99.90
21316;DHT22;10817;55.820;13.030;2024-03-07T02:53:11;0.50;99.90
21316;DHT22;10817;55.820;13.030;2024-03-07T02:55:40;-1.00;99.90
21316;DHT22;10817;55.820;13.030;2024-03-07T02:58:06;-1.00;99.90
21316;DHT22;10817;55.820;13.030;2024-03-07T03:00:33;-1.10;99.90
21316;DHT22;10817;55.820;13.030;2024-03-07T03:03:01;-1.20;99.90
21316;DHT22;10817;55.820;13.030;2024-03-07T03:05:28;-0.10;99.90
21316;DHT22;10817;55.820;13.030;2024-03-07T03:07:55;-1.30;99.90
21316;DHT22;10817;55.820;13.030;2024-03-07T03:10:24;0.80;99.90
21316;DHT22;10817;55.820;13.030;2024-03-07T03:12:54;-1.50;99.90
21316;DHT22;10817;55.820;13.030;2024-03-07T03:15:21;-1.70;99.90
21316;DHT22;10817;55.820;13.030;2024-03-07T03:17:48;-1.80;99.90
21316;DHT22;10817;55.820;13.030;2024-03-07T03:20:15;-1.90;99.90
21316;DHT22;10817;55.820;13.030;2024-03-07T03:22:51;-1.90;99.90
21316;DHT22;10817;55.820;13.030;2024-03-07T03:25:19;-1.90;99.90
21316;DHT22;10817;55.820;13.030;2024-03-07T03:27:46;-1.90;99.90
21316;DHT22;10817;55.820;13.030;2024-03-07T03:30:15;-1.90;99.90
21316;DHT22;10817;55.820;13.030;2024-03-07T03:32:45;-1.70;99.90
21316;DHT22;10817;55.820;13.030;2024-03-07T03:35:13;-1.70;99.90
21316;DHT22;10817;55.820;13.030;2024-03-07T03:37:41;-1.70;99.90
21316;DHT22;10817;55.820;13.030;2024-03-07T03:40:09;-1.70;99.90
21316;DHT22;10817;55.820;13.030;2024-03-07T03:42:37;-1.60;99.90
21316;DHT22;10817;55.820;13.030;2024-03-07T03:45:04;-1.50;99.90
21316;DHT22;10817;55.820;13.030;2024-03-07T03:47:35;-1.50;99.90
21316;DHT22;10817;55.820;13.030;2024-03-07T03:50:03;-1.40;99.90
21316;DHT22;10817;55.820;13.030;2024-03-07T03:52:31;-1.40;99.90
21316;DHT22;10817;55.820;13.030;2024-03-07T03:54:58;-1.60;99.90
21316;DHT22;10817;55.820;13.030;2024-03-07T03:57:25;-1.50;99.90
21316;DHT22;10817;55.820;13.030;2024-03-07T03:59:52;-1.50;99.90
21316;DHT22;10817;55.820;13.030;2024-03-07T04:02:20;-1.50;99.90
21316;DHT22;10817;55.820;13.030;2024-03-07T04:04:49;-1.50;99.90
21316;DHT22;10817;55.820;13.030;2024-03-07T04:07:17;-1.50;99.90
21316;DHT22;10817;55.820;13.030;2024-03-07T04:09:44;-1.30;99.90
21316;DHT22;10817;55.820;13.030;2024-03-07T04:12:12;-1.30;99.90
21316;DHT22;10817;55.820;13.030;2024-03-07T04:14:39;-1.20;99.90
21316;DHT22;10817;55.820;13.030;2024-03-07T04:17:06;-1.20;99.90
21316;DHT22;10817;55.820;13.030;2024-03-07T04:19:34;-1.10;99.90
21316;DHT22;10817;55.820;13.030;2024-03-07T04:22:02;-1.00;99.90
21316;DHT22;10817;55.820;13.030;2024-03-07T04:24:30;0.90;99.90
21316;DHT22;10817;55.820;13.030;2024-03-07T04:26:58;-0.90;99.90
21316;DHT22;10817;55.820;13.030;2024-03-07T04:29:26;-0.90;99.90
21316;DHT22;10817;55.820;13.030;2024-03-07T04:31:53;-0.90;99.90
21316;DHT22;10817;55.820;13.030;2024-03-07T04:34:19;-0.90;99.90
21316;DHT22;10817;55.820;13.030;2024-03-07T04:36:46;-0.80;99.90
21316;DHT22;10817;55.820;13.030;2024-03-07T04:39:15;-0.90;99.90
21316;DHT22;10817;55.820;13.030;2024-03-07T04:41:54;-1.00;99.90
21316;DHT22;10817;55.820;13.030;2024-03-07T04:44:21;-1.00;99.90
21316;DHT22;10817;55.820;13.030;2024-03-07T04:46:48;-1.00;99.90
21316;DHT22;10817;55.820;13.030;2024-03-07T04:49:21;-1.10;99.90
21316;DHT22;10817;55.820;13.030;2024-03-07T04:51:48;-1.10;99.90
21316;DHT22;10817;55.820;13.030;2024-03-07T04:54:17;-1.20;99.90
21316;DHT22;10817;55.820;13.030;2024-03-07T04:56:44;-1.10;99.90
21316;DHT22;10817;55.820;13.030;2024-03-07T04:59:11;-1.10;99.90
21316;DHT22;10817;55.820;13.030;2024-03-07T05:01:38;-1.10;99.90
21316;DHT22;10817;55.820;13.030;2024-03-07T05:04:05;-1.10;99.90
21316;DHT22;10817;55.820;13.030;2024-03-07T05:06:32;-1.00;99.90
21316;DHT22;10817;55.820;13.030;2024-03-07T05:09:00;-1.10;99.90
21316;DHT22;10817;55.820;13.030;2024-03-07T05:11:30;-1.00;99.90
21316;DHT22;10817;55.820;13.030;2024-03-07T05:13:57;-1.00;99.90
21316;DHT22;10817;55.820;13.030;2024-03-07T05:16:25;-1.00;99.90
21316;DHT22;10817;55.820;13.030;2024-03-07T05:18:52;-0.90;99.90
21316;DHT22;10817;55.820;13.030;2024-03-07T05:21:19;0.20;99.90
21316;DHT22;10817;55.820;13.030;2024-03-07T05:24:04;-0.90;99.90
21316;DHT22;10817;55.820;13.030;2024-03-07T05:26:32;-0.80;99.90
21316;DHT22;10817;55.820;13.030;2024-03-07T05:29:01;-0.70;99.90
21316;DHT22;10817;55.820;13.030;2024-03-07T05:31:30;-0.70;99.90
21316;DHT22;10817;55.820;13.030;2024-03-07T05:33:59;-0.70;99.90
21316;DHT22;10817;55.820;13.030;2024-03-07T05:36:29;-0.70;99.90
21316;DHT22;10817;55.820;13.030;2024-03-07T05:38:56;-0.60;99.90
21316;DHT22;10817;55.820;13.030;2024-03-07T05:41:23;-0.50;99.90
21316;DHT22;10817;55.820;13.030;2024-03-07T05:43:51;-0.50;99.90
21316;DHT22;10817;55.820;13.030;2024-03-07T05:46:18;-0.50;99.90
21316;DHT22;10817;55.820;13.030;2024-03-07T05:48:45;-0.40;99.90
21316;DHT22;10817;55.820;13.030;2024-03-07T05:51:15;-0.50;99.90
21316;DHT22;10817;55.820;13.030;2024-03-07T05:53:42;-0.60;99.90
21316;DHT22;10817;55.820;13.030;2024-03-07T05:56:09;-0.70;99.90
21316;DHT22;10817;55.820;13.030;2024-03-07T05:58:36;-0.70;99.90
21316;DHT22;10817;55.820;13.030;2024-03-07T06:01:04;-0.80;99.90
21316;DHT22;10817;55.820;13.030;2024-03-07T06:03:33;-0.80;99.90
21316;DHT22;10817;55.820;13.030;2024-03-07T06:06:00;-0.70;99.90
21316;DHT22;10817;55.820;13.030;2024-03-07T06:08:27;-0.60;99.90
21316;DHT22;10817;55.820;13.030;2024-03-07T06:10:54;-0.70;99.90
21316;DHT22;10817;55.820;13.030;2024-03-07T06:13:21;-0.70;99.90
21316;DHT22;10817;55.820;13.030;2024-03-07T06:15:48;-0.60;99.90
21316;DHT22;10817;55.820;13.030;2024-03-07T06:18:16;-0.60;99.90
21316;DHT22;10817;55.820;13.030;2024-03-07T06:20:43;-0.60;99.90
21316;DHT22;10817;55.820;13.030;2024-03-07T06:23:10;-0.60;99.90
21316;DHT22;10817;55.820;13.030;2024-03-07T06:25:38;-0.60;99.90
21316;DHT22;10817;55.820;13.030;2024-03-07T06:28:13;-0.60;99.90
21316;DHT22;10817;55.820;13.030;2024-03-07T06:30:43;-0.70;99.90
21316;DHT22;10817;55.820;13.030;2024-03-07T06:33:11;-0.70;99.90
21316;DHT22;10817;55.820;13.030;2024-03-07T06:35:39;-0.60;99.90
21316;DHT22;10817;55.820;13.030;2024-03-07T06:38:08;-0.70;99.90
21316;DHT22;10817;55.820;13.030;2024-03-07T06:40:35;-0.70;99.90
21316;DHT22;10817;55.820;13.030;2024-03-07T06:43:02;-0.80;99.90
21316;DHT22;10817;55.820;13.030;2024-03-07T06:45:32;-0.80;99.90
21316;DHT22;10817;55.820;13.030;2024-03-07T06:47:59;-0.80;99.90
21316;DHT22;10817;55.820;13.030;2024-03-07T06:50:26;-0.60;99.90
21316;DHT22;10817;55.820;13.030;2024-03-07T06:52:56;-0.60;99.90
21316;DHT22;10817;55.820;13.030;2024-03-07T06:55:22;-0.60;99.90
21316;DHT22;10817;55.820;13.030;2024-03-07T06:57:49;-0.60;99.90
21316;DHT22;10817;55.820;13.030;2024-03-07T07:00:16;-0.60;99.90
21316;DHT22;10817;55.820;13.030;2024-03-07T07:02:46;-0.50;99.90
21316;DHT22;10817;55.820;13.030;2024-03-07T07:05:13;-0.50;99.90
21316;DHT22;10817;55.820;13.030;2024-03-07T07:07:41;-0.40;99.90
21316;DHT22;10817;55.820;13.030;2024-03-07T07:10:10;-0.30;99.90
21316;DHT22;10817;55.820;13.030;2024-03-07T07:12:42;-0.20;99.90
21316;DHT22;10817;55.820;13.030;2024-03-07T07:15:10;-0.20;99.90
21316;DHT22;10817;55.820;13.030;2024-03-07T07:17:37;-0.10;99.90
21316;DHT22;10817;55.820;13.030;2024-03-07T07:20:05;-0.10;99.90
21316;DHT22;10817;55.820;13.030;2024-03-07T07:22:36;-0.10;99.90
21316;DHT22;10817;55.820;13.030;2024-03-07T07:25:04;0.00;99.90
21316;DHT22;10817;55.820;13.030;2024-03-07T07:27:33;0.00;99.90
21316;DHT22;10817;55.820;13.030;2024-03-07T07:30:00;0.10;99.90
21316;DHT22;10817;55.820;13.030;2024-03-07T07:32:27;0.10;99.90
21316;DHT22;10817;55.820;13.030;2024-03-07T07:34:54;0.20;99.90
21316;DHT22;10817;55.820;13.030;2024-03-07T07:37:21;0.20;99.90
21316;DHT22;10817;55.820;13.030;2024-03-07T07:39:48;0.30;99.90
21316;DHT22;10817;55.820;13.030;2024-03-07T07:42:15;0.30;99.90
21316;DHT22;10817;55.820;13.030;2024-03-07T07:44:45;0.40;99.90
21316;DHT22;10817;55.820;13.030;2024-03-07T07:47:12;0.40;99.90
21316;DHT22;10817;55.820;13.030;2024-03-07T07:49:39;0.40;99.90
21316;DHT22;10817;55.820;13.030;2024-03-07T07:52:07;0.50;99.90
21316;DHT22;10817;55.820;13.030;2024-03-07T07:54:34;0.50;99.90
21316;DHT22;10817;55.820;13.030;2024-03-07T07:57:01;0.60;99.90
21316;DHT22;10817;55.820;13.030;2024-03-07T07:59:28;1.20;99.90
21316;DHT22;10817;55.820;13.030;2024-03-07T08:01:56;0.70;99.90
21316;DHT22;10817;55.820;13.030;2024-03-07T08:04:23;0.70;99.90
21316;DHT22;10817;55.820;13.030;2024-03-07T08:06:50;0.80;99.90
21316;DHT22;10817;55.820;13.030;2024-03-07T08:09:17;0.80;99.90
21316;DHT22;10817;55.820;13.030;2024-03-07T08:11:44;0.80;99.90
21316;DHT22;10817;55.820;13.030;2024-03-07T08:14:11;0.80;99.90
21316;DHT22;10817;55.820;13.030;2024-03-07T08:16:38;0.90;99.90
21316;DHT22;10817;55.820;13.030;2024-03-07T08:19:07;1.00;99.90
21316;DHT22;10817;55.820;13.030;2024-03-07T08:21:34;1.00;99.90
21316;DHT22;10817;55.820;13.030;2024-03-07T08:24:03;1.10;99.90
21316;DHT22;10817;55.820;13.030;2024-03-07T08:26:36;1.20;99.90
21316;DHT22;10817;55.820;13.030;2024-03-07T08:29:03;1.30;99.90
21316;DHT22;10817;55.820;13.030;2024-03-07T08:31:31;1.40;99.90
21316;DHT22;10817;55.820;13.030;2024-03-07T08:33:57;1.40;99.90
21316;DHT22;10817;55.820;13.030;2024-03-07T08:36:26;1.50;99.90
21316;DHT22;10817;55.820;13.030;2024-03-07T08:38:53;1.60;99.90
21316;DHT22;10817;55.820;13.030;2024-03-07T08:41:20;2.40;99.90
21316;DHT22;10817;55.820;13.030;2024-03-07T08:43:47;1.80;99.90
21316;DHT22;10817;55.820;13.030;2024-03-07T08:46:15;1.90;99.90
21316;DHT22;10817;55.820;13.030;2024-03-07T08:48:42;2.00;99.90
21316;DHT22;10817;55.820;13.030;2024-03-07T08:51:07;2.20;99.90
21316;DHT22;10817;55.820;13.030;2024-03-07T08:53:36;2.30;99.90
21316;DHT22;10817;55.820;13.030;2024-03-07T08:56:03;2.40;99.90
21316;DHT22;10817;55.820;13.030;2024-03-07T08:58:30;2.50;99.90
21316;DHT22;10817;55.820;13.030;2024-03-07T09:00:57;4.40;99.90
21316;DHT22;10817;55.820;13.030;2024-03-07T09:03:24;2.90;99.90
21316;DHT22;10817;55.820;13.030;2024-03-07T09:05:51;3.00;99.90
21316;DHT22;10817;55.820;13.030;2024-03-07T09:08:18;4.90;99.90
21316;DHT22;10817;55.820;13.030;2024-03-07T09:10:46;3.70;99.90
21316;DHT22;10817;55.820;13.030;2024-03-07T09:13:13;3.50;99.90
21316;DHT22;10817;55.820;13.030;2024-03-07T09:15:40;3.60;99.90
21316;DHT22;10817;55.820;13.030;2024-03-07T09:18:07;3.70;99.90
21316;DHT22;10817;55.820;13.030;2024-03-07T09:20:34;3.90;99.90
21316;DHT22;10817;55.820;13.030;2024-03-07T09:23:02;4.10;99.90
21316;DHT22;10817;55.820;13.030;2024-03-07T09:25:29;4.40;99.90
21316;DHT22;10817;55.820;13.030;2024-03-07T09:28:03;5.10;99.90
21316;DHT22;10817;55.820;13.030;2024-03-07T09:30:31;5.90;99.90
21316;DHT22;10817;55.820;13.030;2024-03-07T09:32:59;7.20;15.10
21316;DHT22;10817;55.820;13.030;2024-03-07T09:35:27;9.30;1.00
21316;DHT22;10817;55.820;13.030;2024-03-07T09:37:54;9.30;1.00
21316;DHT22;10817;55.820;13.030;2024-03-07T09:40:22;9.40;1.00
21316;DHT22;10817;55.820;13.030;2024-03-07T09:42:51;9.70;1.00
21316;DHT22;10817;55.820;13.030;2024-03-07T09:45:20;10.50;1.00
21316;DHT22;10817;55.820;13.030;2024-03-07T09:47:49;10.90;1.00
21316;DHT22;10817;55.820;13.030;2024-03-07T09:50:18;10.70;1.00
21316;DHT22;10817;55.820;13.030;2024-03-07T09:52:48;11.40;1.00
21316;DHT22;10817;55.820;13.030;2024-03-07T09:55:16;12.10;99.90
21316;DHT22;10817;55.820;13.030;2024-03-07T09:57:46;12.90;99.90
21316;DHT22;10817;55.820;13.030;2024-03-07T10:00:17;13.60;99.90
21316;DHT22;10817;55.820;13.030;2024-03-07T10:02:53;13.50;99.90
21316;DHT22;10817;55.820;13.030;2024-03-07T10:05:23;13.90;99.90
21316;DHT22;10817;55.820;13.030;2024-03-07T10:07:51;14.10;1.00
21316;DHT22;10817;55.820;13.030;2024-03-07T10:10:19;14.60;99.90
21316;DHT22;10817;55.820;13.030;2024-03-07T10:12:48;14.30;1.00
21316;DHT22;10817;55.820;13.030;2024-03-07T10:15:15;16.10;1.00
21316;DHT22;10817;55.820;13.030;2024-03-07T10:17:43;15.60;1.00
21316;DHT22;10817;55.820;13.030;2024-03-07T10:20:18;15.20;1.00
21316;DHT22;10817;55.820;13.030;2024-03-07T10:22:46;16.60;1.00
21316;DHT22;10817;55.820;13.030;2024-03-07T10:25:16;14.70;1.00
21316;DHT22;10817;55.820;13.030;2024-03-07T10:27:43;14.80;1.00
21316;DHT22;10817;55.820;13.030;2024-03-07T10:30:14;14.80;1.00
21316;DHT22;10817;55.820;13.030;2024-03-07T10:32:46;14.80;1.00
21316;DHT22;10817;55.820;13.030;2024-03-07T10:35:20;14.20;1.00
21316;DHT22;10817;55.820;13.030;2024-03-07T10:37:48;15.90;1.00
21316;DHT22;10817;55.820;13.030;2024-03-07T10:40:15;17.30;1.00
21316;DHT22;10817;55.820;13.030;2024-03-07T10:42:45;16.50;40.90
21316;DHT22;10817;55.820;13.030;2024-03-07T10:45:18;18.10;57.90
21316;DHT22;10817;55.820;13.030;2024-03-07T10:47:53;17.10;51.70
21316;DHT22;10817;55.820;13.030;2024-03-07T10:50:30;17.80;1.00
21316;DHT22;10817;55.820;13.030;2024-03-07T10:53:03;17.90;5.60
21316;DHT22;10817;55.820;13.030;2024-03-07T10:55:37;18.20;29.80
21316;DHT22;10817;55.820;13.030;2024-03-07T10:58:09;18.40;34.30
21316;DHT22;10817;55.820;13.030;2024-03-07T11:00:42;18.30;30.30
21316;DHT22;10817;55.820;13.030;2024-03-07T11:03:11;17.90;27.20
21316;DHT22;10817;55.820;13.030;2024-03-07T11:05:40;19.30;24.20
21316;DHT22;10817;55.820;13.030;2024-03-07T11:08:10;18.60;22.90
21316;DHT22;10817;55.820;13.030;2024-03-07T11:10:38;18.30;27.00
21316;DHT22;10817;55.820;13.030;2024-03-07T11:13:07;18.80;33.00
21316;DHT22;10817;55.820;13.030;2024-03-07T11:15:35;20.10;44.20
21316;DHT22;10817;55.820;13.030;2024-03-07T11:18:03;18.80;51.00
21316;DHT22;10817;55.820;13.030;2024-03-07T11:20:35;18.50;53.60
21316;DHT22;10817;55.820;13.030;2024-03-07T11:23:26;18.80;53.60
21316;DHT22;10817;55.820;13.030;2024-03-07T11:25:55;18.50;47.40
21316;DHT22;10817;55.820;13.030;2024-03-07T11:28:28;18.90;88.00
21316;DHT22;10817;55.820;13.030;2024-03-07T11:31:16;19.40;85.70
21316;DHT22;10817;55.820;13.030;2024-03-07T11:34:13;19.90;84.10
21316;DHT22;10817;55.820;13.030;2024-03-07T11:36:44;19.70;81.20
21316;DHT22;10817;55.820;13.030;2024-03-07T11:39:40;20.10;82.10
21316;DHT22;10817;55.820;13.030;2024-03-07T11:42:08;19.80;78.40
21316;DHT22;10817;55.820;13.030;2024-03-07T11:44:35;19.40;80.60
21316;DHT22;10817;55.820;13.030;2024-03-07T11:47:05;19.70;80.10
21316;DHT22;10817;55.820;13.030;2024-03-07T11:49:35;19.90;78.00
21316;DHT22;10817;55.820;13.030;2024-03-07T11:52:03;20.10;76.70
21316;DHT22;10817;55.820;13.030;2024-03-07T11:54:37;19.80;78.00
21316;DHT22;10817;55.820;13.030;2024-03-07T11:57:07;20.10;76.60
21316;DHT22;10817;55.820;13.030;2024-03-07T11:59:39;21.20;75.00
21316;DHT22;10817;55.820;13.030;2024-03-07T12:02:11;22.00;71.00
21316;DHT22;10817;55.820;13.030;2024-03-07T12:04:39;21.70;68.90
21316;DHT22;10817;55.820;13.030;2024-03-07T12:07:07;22.30;67.40
21316;DHT22;10817;55.820;13.030;2024-03-07T12:09:37;21.00;67.10
21316;DHT22;10817;55.820;13.030;2024-03-07T12:12:05;20.60;68.80
21316;DHT22;10817;55.820;13.030;2024-03-07T12:14:33;21.10;68.80
21316;DHT22;10817;55.820;13.030;2024-03-07T12:17:01;22.60;66.00
21316;DHT22;10817;55.820;13.030;2024-03-07T12:19:30;22.10;64.90
21316;DHT22;10817;55.820;13.030;2024-03-07T12:22:00;21.70;65.60
21316;DHT22;10817;55.820;13.030;2024-03-07T12:24:28;21.30;66.70
21316;DHT22;10817;55.820;13.030;2024-03-07T12:27:04;21.50;65.70
21316;DHT22;10817;55.820;13.030;2024-03-07T12:29:33;21.40;66.40
21316;DHT22;10817;55.820;13.030;2024-03-07T12:32:00;21.70;64.40
21316;DHT22;10817;55.820;13.030;2024-03-07T12:34:27;21.70;64.40
21316;DHT22;10817;55.820;13.030;2024-03-07T12:36:56;22.30;62.70
21316;DHT22;10817;55.820;13.030;2024-03-07T12:39:23;22.70;62.30
21316;DHT22;10817;55.820;13.030;2024-03-07T12:41:58;22.70;61.40
21316;DHT22;10817;55.820;13.030;2024-03-07T12:44:25;22.40;61.50
21316;DHT22;10817;55.820;13.030;2024-03-07T12:46:55;22.40;61.60
21316;DHT22;10817;55.820;13.030;2024-03-07T12:49:22;22.10;61.60
21316;DHT22;10817;55.820;13.030;2024-03-07T12:51:53;21.50;62.70
21316;DHT22;10817;55.820;13.030;2024-03-07T12:54:19;21.50;63.20
21316;DHT22;10817;55.820;13.030;2024-03-07T12:56:47;21.80;61.70
21316;DHT22;10817;55.820;13.030;2024-03-07T12:59:15;22.00;60.70
21316;DHT22;10817;55.820;13.030;2024-03-07T13:01:42;22.00;59.70
21316;DHT22;10817;55.820;13.030;2024-03-07T13:04:12;21.80;59.90
21316;DHT22;10817;55.820;13.030;2024-03-07T13:06:39;21.30;61.40
21316;DHT22;10817;55.820;13.030;2024-03-07T13:09:09;21.90;60.00
21316;DHT22;10817;55.820;13.030;2024-03-07T13:11:37;22.40;59.70
21316;DHT22;10817;55.820;13.030;2024-03-07T13:14:06;22.70;59.40
21316;DHT22;10817;55.820;13.030;2024-03-07T13:16:33;21.70;61.40
21316;DHT22;10817;55.820;13.030;2024-03-07T13:19:00;21.70;59.90
21316;DHT22;10817;55.820;13.030;2024-03-07T13:21:31;21.60;61.30
21316;DHT22;10817;55.820;13.030;2024-03-07T13:24:00;21.20;61.00
21316;DHT22;10817;55.820;13.030;2024-03-07T13:26:28;21.20;63.30
21316;DHT22;10817;55.820;13.030;2024-03-07T13:28:55;21.70;61.60
21316;DHT22;10817;55.820;13.030;2024-03-07T13:31:26;21.80;60.70
21316;DHT22;10817;55.820;13.030;2024-03-07T13:33:54;22.20;58.70
21316;DHT22;10817;55.820;13.030;2024-03-07T13:36:21;22.30;58.00
21316;DHT22;10817;55.820;13.030;2024-03-07T13:38:52;22.20;57.40
21316;DHT22;10817;55.820;13.030;2024-03-07T13:41:19;21.70;58.00
21316;DHT22;10817;55.820;13.030;2024-03-07T13:43:47;21.80;58.70
21316;DHT22;10817;55.820;13.030;2024-03-07T13:46:14;20.90;58.20
21316;DHT22;10817;55.820;13.030;2024-03-07T13:48:43;21.60;58.80
21316;DHT22;10817;55.820;13.030;2024-03-07T13:51:12;21.80;58.10
21316;DHT22;10817;55.820;13.030;2024-03-07T13:53:41;21.50;58.80
21316;DHT22;10817;55.820;13.030;2024-03-07T13:56:45;21.30;59.90
21316;DHT22;10817;55.820;13.030;2024-03-07T13:59:31;20.60;59.40
21316;DHT22;10817;55.820;13.030;2024-03-07T14:02:16;20.00;62.80
21316;DHT22;10817;55.820;13.030;2024-03-07T14:05:26;20.40;62.50
21316;DHT22;10817;55.820;13.030;2024-03-07T14:08:20;20.70;62.10
21316;DHT22;10817;55.820;13.030;2024-03-07T14:11:08;21.10;62.00
21316;DHT22;10817;55.820;13.030;2024-03-07T14:13:52;20.30;61.40
21316;DHT22;10817;55.820;13.030;2024-03-07T14:16:49;19.90;61.70
21316;DHT22;10817;55.820;13.030;2024-03-07T14:20:09;20.50;61.70
21316;DHT22;10817;55.820;13.030;2024-03-07T14:23:04;20.70;61.30
21316;DHT22;10817;55.820;13.030;2024-03-07T14:26:02;21.30;59.70
21316;DHT22;10817;55.820;13.030;2024-03-07T14:28:51;21.10;58.70
21316;DHT22;10817;55.820;13.030;2024-03-07T14:31:20;20.30;61.40
21316;DHT22;10817;55.820;13.030;2024-03-07T14:33:53;20.60;61.70
21316;DHT22;10817;55.820;13.030;2024-03-07T14:36:33;20.60;61.90
21316;DHT22;10817;55.820;13.030;2024-03-07T14:39:02;20.30;61.90
21316;DHT22;10817;55.820;13.030;2024-03-07T14:41:44;20.10;62.80
21316;DHT22;10817;55.820;13.030;2024-03-07T14:44:16;19.70;62.80
21316;DHT22;10817;55.820;13.030;2024-03-07T14:46:43;19.50;63.70
21316;DHT22;10817;55.820;13.030;2024-03-07T14:49:14;20.20;63.70
21316;DHT22;10817;55.820;13.030;2024-03-07T14:51:41;20.50;61.90
21316;DHT22;10817;55.820;13.030;2024-03-07T14:54:08;20.40;61.60
21316;DHT22;10817;55.820;13.030;2024-03-07T14:56:36;20.20;63.00
21316;DHT22;10817;55.820;13.030;2024-03-07T14:59:02;19.50;64.30
21316;DHT22;10817;55.820;13.030;2024-03-07T15:01:33;19.90;63.70
21316;DHT22;10817;55.820;13.030;2024-03-07T15:04:00;19.70;63.90
21316;DHT22;10817;55.820;13.030;2024-03-07T15:06:32;19.50;62.80
21316;DHT22;10817;55.820;13.030;2024-03-07T15:08:59;19.40;65.00
21316;DHT22;10817;55.820;13.030;2024-03-07T15:11:31;18.80;65.60
21316;DHT22;10817;55.820;13.030;2024-03-07T15:14:00;18.60;66.80
21316;DHT22;10817;55.820;13.030;2024-03-07T15:16:30;18.40;67.20
21316;DHT22;10817;55.820;13.030;2024-03-07T15:19:02;18.10;68.00
21316;DHT22;10817;55.820;13.030;2024-03-07T15:21:29;17.80;68.60
21316;DHT22;10817;55.820;13.030;2024-03-07T15:23:56;17.80;68.40
21316;DHT22;10817;55.820;13.030;2024-03-07T15:26:23;17.60;69.20
21316;DHT22;10817;55.820;13.030;2024-03-07T15:28:50;17.10;70.70
21316;DHT22;10817;55.820;13.030;2024-03-07T15:31:17;18.80;70.70
21316;DHT22;10817;55.820;13.030;2024-03-07T15:33:45;18.10;70.20